^^
Datos históricos de la estación: Murcia-Puente Tocinos
Diario Informe para Noviembre 7, 2019 Unidades:  Ambas    Ingés   Métrico
Diario Semanal Mensual Anual
  Máxima: Mínima: Promedio:
Temperatura: 70.5 °F /  21.4 °C 49.8 °F /  9.9 °C 60.3 °F /  15.7 °C
Punto de rocio: 52.9 °F /  11.6 °C 36.7 °F /  2.6 °C 43.5 °F /  6.4 °C
Humedad: 72% 37.1% 55%
Velocidad viento: 12.5mph /  20.1km/h - 3.6mph /  5.8km/h
Racha viento: 24.2mph /  38.9km/h - -
Viento- - SO
Presión: 29.9 in /  1013.6 hPa 29.7 in /  1007.2 hPa -
Precipitación: 0.01 in /  0.3 mm    
 
 
Tabla de datos para Noviembre 7, 2019
Hora Temperatura Punto de rocio Presión Viento Velocidad viento Racha viento Humedad Intensidad lluvia(por hora) Nubes
00:04 58.1 °F /  14.5 °C 40.3 °F /  4.6 °C 29.9in /  1013.6hPa SSE 3.5mph /  5.6km/h 6mph /  9.7km/h 51.2% 0in /  0.0mm
00:09 57.9 °F /  14.4 °C 40.5 °F /  4.7 °C 29.9in /  1013.6hPa Sur 3.6mph /  5.8km/h 5mph /  8km/h 52% 0in /  0.0mm
00:14 57.7 °F /  14.3 °C 40.3 °F /  4.6 °C 29.9in /  1013.3hPa SSO 3mph /  4.9km/h 5mph /  8km/h 52% 0in /  0.0mm
00:19 57.7 °F /  14.3 °C 40.3 °F /  4.6 °C 29.9in /  1013.3hPa SO 2.9mph /  4.7km/h 5.2mph /  8.4km/h 52.1% 0in /  0.0mm
00:24 57.6 °F /  14.2 °C 40.1 °F /  4.5 °C 29.9in /  1013.3hPa SSO 2.9mph /  4.7km/h 5mph /  8km/h 52% 0in /  0.0mm
00:29 57.6 °F /  14.2 °C 40.3 °F /  4.6 °C 29.9in /  1013.3hPa Sur 2.9mph /  4.7km/h 5mph /  8km/h 52.6% 0in /  0.0mm
00:34 57.6 °F /  14.2 °C 40.3 °F /  4.6 °C 29.9in /  1013.3hPa SO 3mph /  4.9km/h 5.2mph /  8.4km/h 52.6% 0in /  0.0mm
00:39 57.4 °F /  14.1 °C 40.3 °F /  4.6 °C 29.9in /  1013.3hPa SSO 3.1mph /  5km/h 5.2mph /  8.4km/h 52.6% 0in /  0.0mm
00:44 57.2 °F /  14 °C 40.8 °F /  4.9 °C 29.9in /  1013.1hPa SE 2.9mph /  4.7km/h 5.2mph /  8.4km/h 54.4% 0in /  0.0mm
00:49 56.7 °F /  13.7 °C 40.6 °F /  4.8 °C 29.9in /  1013.1hPa Sur 2.9mph /  4.7km/h 6.2mph /  10km/h 55% 0in /  0.0mm
00:54 56.5 °F /  13.6 °C 40.5 °F /  4.7 °C 29.9in /  1013.1hPa SSO 3.4mph /  5.5km/h 6mph /  9.7km/h 55% 0in /  0.0mm
00:59 56.5 °F /  13.6 °C 40.5 °F /  4.7 °C 29.9in /  1013.0hPa SO 3.6mph /  5.8km/h 6mph /  9.7km/h 55% 0in /  0.0mm
01:04 56.5 °F /  13.6 °C 40.5 °F /  4.7 °C 29.9in /  1013.0hPa SSO 3.2mph /  5.1km/h 6.2mph /  10km/h 55% 0in /  0.0mm
01:09 56.3 °F /  13.5 °C 40.3 °F /  4.6 °C 29.9in /  1013.0hPa SSO 3.1mph /  5km/h 6mph /  9.7km/h 55% 0in /  0.0mm
01:14 56.3 °F /  13.5 °C 40.3 °F /  4.6 °C 29.9in /  1012.8hPa SO 3.8mph /  6.1km/h 6.2mph /  10km/h 55% 0in /  0.0mm
01:19 56.3 °F /  13.5 °C 40.3 °F /  4.6 °C 29.9in /  1012.8hPa SO 4mph /  6.5km/h 6mph /  9.7km/h 55% 0in /  0.0mm
01:24 56.1 °F /  13.4 °C 40.3 °F /  4.6 °C 29.9in /  1012.8hPa SSO 3.3mph /  5.3km/h 8.1mph /  13km/h 55% 0in /  0.0mm
01:29 56.3 °F /  13.5 °C 40.3 °F /  4.6 °C 29.9in /  1012.8hPa SO 3.1mph /  5km/h 8.1mph /  13km/h 55% 0in /  0.0mm
01:34 56.3 °F /  13.5 °C 40.3 °F /  4.6 °C 29.9in /  1012.8hPa SO 4.3mph /  7km/h 7mph /  11.3km/h 55% 0in /  0.0mm
01:39 56.1 °F /  13.4 °C 40.3 °F /  4.6 °C 29.9in /  1012.8hPa SO 4.7mph /  7.6km/h 6mph /  9.7km/h 55% 0in /  0.0mm
01:44 56.1 °F /  13.4 °C 40.1 °F /  4.5 °C 29.9in /  1012.6hPa SO 3.2mph /  5.2km/h 4.6mph /  7.4km/h 55% 0in /  0.0mm
01:49 55.9 °F /  13.3 °C 39.9 °F /  4.4 °C 29.9in /  1012.6hPa SSO 2.9mph /  4.7km/h 6.2mph /  10km/h 55% 0in /  0.0mm
01:54 55.9 °F /  13.3 °C 39.9 °F /  4.4 °C 29.9in /  1012.6hPa Sur 3mph /  4.9km/h 7.4mph /  11.9km/h 55% 0in /  0.0mm
01:59 55.9 °F /  13.3 °C 40.1 °F /  4.5 °C 29.9in /  1012.4hPa SSO 3.1mph /  5km/h 7.4mph /  11.9km/h 55% 0in /  0.0mm
02:04 55.9 °F /  13.3 °C 40.1 °F /  4.5 °C 29.9in /  1012.4hPa SSO 4.8mph /  7.8km/h 8.1mph /  13km/h 55% 0in /  0.0mm
02:09 55.9 °F /  13.3 °C 39.9 °F /  4.4 °C 29.9in /  1012.4hPa SSO 5.2mph /  8.4km/h 8mph /  12.9km/h 55% 0in /  0.0mm
02:14 55.9 °F /  13.3 °C 39.9 °F /  4.4 °C 29.9in /  1012.1hPa SSO 4.8mph /  7.7km/h 6.9mph /  11.1km/h 55% 0in /  0.0mm
02:19 55.9 °F /  13.3 °C 39.9 °F /  4.4 °C 29.9in /  1012.1hPa SSO 4.7mph /  7.6km/h 7mph /  11.3km/h 55% 0in /  0.0mm
02:24 55.9 °F /  13.3 °C 39.9 °F /  4.4 °C 29.9in /  1012.1hPa SO 4.2mph /  6.7km/h 6mph /  9.7km/h 55% 0in /  0.0mm
02:29 55.9 °F /  13.3 °C 39.7 °F /  4.3 °C 29.9in /  1012.0hPa OSO 4mph /  6.5km/h 6mph /  9.7km/h 54.6% 0in /  0.0mm
02:34 55.8 °F /  13.2 °C 39.6 °F /  4.2 °C 29.9in /  1012.0hPa Oeste 3.1mph /  5km/h 5mph /  8km/h 54.2% 0in /  0.0mm
02:39 55.8 °F /  13.2 °C 39.7 °F /  4.3 °C 29.9in /  1012.0hPa Oeste 2.9mph /  4.7km/h 5mph /  8km/h 55.1% 0in /  0.0mm
02:44 55.4 °F /  13 °C 40.1 °F /  4.5 °C 29.9in /  1011.9hPa Oeste 2mph /  3.2km/h 3mph /  4.8km/h 56.5% 0in /  0.0mm
02:49 55 °F /  12.8 °C 40.1 °F /  4.5 °C 29.9in /  1011.9hPa Oeste 1.8mph /  2.9km/h 4.3mph /  6.9km/h 57% 0in /  0.0mm
02:54 54.7 °F /  12.6 °C 39.7 °F /  4.3 °C 29.9in /  1012.0hPa SO 2mph /  3.2km/h 6.2mph /  10km/h 57.1% 0in /  0.0mm
02:59 54.7 °F /  12.6 °C 39.4 °F /  4.1 °C 29.9in /  1012.0hPa SO 2mph /  3.2km/h 9.2mph /  14.8km/h 56% 0in /  0.0mm
03:04 54.9 °F /  12.7 °C 39 °F /  3.9 °C 29.9in /  1012.0hPa SO 4.2mph /  6.8km/h 9mph /  14.5km/h 55% 0in /  0.0mm
03:09 54.9 °F /  12.7 °C 39 °F /  3.9 °C 29.9in /  1012.0hPa SO 4.7mph /  7.6km/h 7mph /  11.3km/h 55% 0in /  0.0mm
03:14 54.9 °F /  12.7 °C 39.2 °F /  4 °C 29.9in /  1012.0hPa SO 4.2mph /  6.7km/h 8.1mph /  13km/h 55.5% 0in /  0.0mm
03:19 54.5 °F /  12.5 °C 39.6 °F /  4.2 °C 29.9in /  1012.0hPa SSO 4mph /  6.5km/h 10.4mph /  16.7km/h 57% 0in /  0.0mm
03:24 54.1 °F /  12.3 °C 39.9 °F /  4.4 °C 29.9in /  1012.0hPa SSO 4.6mph /  7.4km/h 10mph /  16.1km/h 58.6% 0in /  0.0mm
03:29 54 °F /  12.2 °C 40.3 °F /  4.6 °C 29.9in /  1012.0hPa SO 4.7mph /  7.6km/h 7mph /  11.3km/h 59.9% 0in /  0.0mm
03:34 54 °F /  12.2 °C 40.3 °F /  4.6 °C 29.9in /  1012.0hPa OSO 4.2mph /  6.7km/h 7mph /  11.3km/h 60% 0in /  0.0mm
03:39 53.8 °F /  12.1 °C 40.5 °F /  4.7 °C 29.9in /  1012.0hPa SO 4mph /  6.5km/h 6.9mph /  11.1km/h 60.8% 0in /  0.0mm
03:44 53.8 °F /  12.1 °C 40.6 °F /  4.8 °C 29.9in /  1011.9hPa SSO 3.3mph /  5.3km/h 7mph /  11.3km/h 61.1% 0in /  0.0mm
03:49 53.8 °F /  12.1 °C 41 °F /  5 °C 29.9in /  1011.9hPa SE 3.1mph /  5km/h 4mph /  6.4km/h 62% 0in /  0.0mm
03:54 53.6 °F /  12 °C 41 °F /  5 °C 29.9in /  1011.9hPa SE 2.5mph /  4.1km/h 5mph /  8km/h 62.2% 0in /  0.0mm
03:59 53.4 °F /  11.9 °C 41.2 °F /  5.1 °C 29.9in /  1011.7hPa SE 2.4mph /  3.9km/h 5mph /  8km/h 63% 0in /  0.0mm
04:04 53.4 °F /  11.9 °C 41 °F /  5 °C 29.9in /  1011.7hPa Sur 2.1mph /  3.3km/h 5mph /  8km/h 63% 0in /  0.0mm
04:09 53.2 °F /  11.8 °C 41.2 °F /  5.1 °C 29.9in /  1011.7hPa Sur 2mph /  3.2km/h 4mph /  6.4km/h 63.4% 0in /  0.0mm
04:14 53.2 °F /  11.8 °C 41.2 °F /  5.1 °C 29.9in /  1011.4hPa SE 1.9mph /  3km/h 4.6mph /  7.4km/h 63.6% 0in /  0.0mm
04:19 52.9 °F /  11.6 °C 41 °F /  5 °C 29.9in /  1011.4hPa Sur 1.8mph /  2.9km/h 5mph /  8km/h 64% 0in /  0.0mm
04:24 52.7 °F /  11.5 °C 41 °F /  5 °C 29.9in /  1011.4hPa SSO 2.3mph /  3.7km/h 5mph /  8km/h 64.6% 0in /  0.0mm
04:29 52.5 °F /  11.4 °C 41.2 °F /  5.1 °C 29.9in /  1011.4hPa SO 2.4mph /  3.9km/h 4mph /  6.4km/h 65% 0in /  0.0mm
04:34 52.5 °F /  11.4 °C 41.2 °F /  5.1 °C 29.9in /  1011.4hPa SO 1.9mph /  3.1km/h 4mph /  6.4km/h 65% 0in /  0.0mm
04:39 52.7 °F /  11.5 °C 41.4 °F /  5.2 °C 29.9in /  1011.4hPa SO 1.8mph /  2.9km/h 3mph /  4.8km/h 65% 0in /  0.0mm
04:44 52.7 °F /  11.5 °C 41.4 °F /  5.2 °C 29.9in /  1011.4hPa SO 0.4mph /  0.6km/h 4.6mph /  7.4km/h 65% 0in /  0.0mm
04:49 52.9 °F /  11.6 °C 41.5 °F /  5.3 °C 29.9in /  1011.4hPa Calm   5mph /  8km/h 65.3% 0in /  0.0mm
04:54 52.5 °F /  11.4 °C 40.8 °F /  4.9 °C 29.9in /  1011.4hPa SE 1.6mph /  2.6km/h 5.2mph /  8.4km/h 64.2% 0in /  0.0mm
04:59 52.3 °F /  11.3 °C 40.6 °F /  4.8 °C 29.9in /  1011.3hPa SE 2mph /  3.2km/h 5mph /  8km/h 64.4% 0in /  0.0mm
05:04 52.2 °F /  11.2 °C 40.6 °F /  4.8 °C 29.9in /  1011.3hPa SSE 2.7mph /  4.4km/h 5.4mph /  8.7km/h 65% 0in /  0.0mm
05:09 52 °F /  11.1 °C 40.6 °F /  4.8 °C 29.9in /  1011.4hPa SSE 2.9mph /  4.7km/h 6mph /  9.7km/h 65.3% 0in /  0.0mm
05:14 52 °F /  11.1 °C 41 °F /  5 °C 29.9in /  1011.4hPa SSE 3.5mph /  5.6km/h 7.6mph /  12.2km/h 66% 0in /  0.0mm
05:19 52 °F /  11.1 °C 41 °F /  5 °C 29.9in /  1011.4hPa Sur 3.6mph /  5.8km/h 8.1mph /  13km/h 66% 0in /  0.0mm
05:24 52 °F /  11.1 °C 41 °F /  5 °C 29.9in /  1011.4hPa SSE 4.2mph /  6.7km/h 6.9mph /  11.1km/h 66% 0in /  0.0mm
05:29 52 °F /  11.1 °C 41 °F /  5 °C 29.9in /  1011.4hPa Sur 4.3mph /  6.9km/h 7mph /  11.3km/h 66% 0in /  0.0mm
05:34 52 °F /  11.1 °C 40.8 °F /  4.9 °C 29.9in /  1011.4hPa SSO 4.3mph /  6.9km/h 8.1mph /  13km/h 65.6% 0in /  0.0mm
05:39 52.2 °F /  11.2 °C 40.6 °F /  4.8 °C 29.9in /  1011.4hPa SSO 4.3mph /  6.9km/h 8mph /  12.9km/h 64.9% 0in /  0.0mm
05:44 52.2 °F /  11.2 °C 40.6 °F /  4.8 °C 29.9in /  1011.3hPa SSE 4.3mph /  6.9km/h 7mph /  11.3km/h 65% 0in /  0.0mm
05:49 52.2 °F /  11.2 °C 40.8 °F /  4.9 °C 29.9in /  1011.3hPa SSE 4.3mph /  6.9km/h 5.9mph /  9.5km/h 65.2% 0in /  0.0mm
05:54 51.8 °F /  11 °C 40.8 °F /  4.9 °C 29.9in /  1011.3hPa SSE 3.7mph /  6km/h 6mph /  9.7km/h 66% 0in /  0.0mm
05:59 51.6 °F /  10.9 °C 40.8 °F /  4.9 °C 29.9in /  1011.1hPa SSO 3.6mph /  5.8km/h 6mph /  9.7km/h 66.5% 0in /  0.0mm
06:04 51.6 °F /  10.9 °C 40.6 °F /  4.8 °C 29.9in /  1011.1hPa SSO 3mph /  4.8km/h 6.2mph /  10km/h 66% 0in /  0.0mm
06:09 52 °F /  11.1 °C 40.8 °F /  4.9 °C 29.9in /  1011.1hPa SO 2.9mph /  4.7km/h 6mph /  9.7km/h 65.5% 0in /  0.0mm
06:14 52.2 °F /  11.2 °C 40.6 °F /  4.8 °C 29.9in /  1011.0hPa Oeste 3mph /  4.9km/h 5mph /  8km/h 65% 0in /  0.0mm
06:19 52.3 °F /  11.3 °C 40.8 °F /  4.9 °C 29.9in /  1011.0hPa Oeste 3.1mph /  5km/h 5mph /  8km/h 65% 0in /  0.0mm
06:24 52.2 °F /  11.2 °C 40.6 °F /  4.8 °C 29.9in /  1011.0hPa Oeste 2.1mph /  3.3km/h 3mph /  4.8km/h 65.1% 0in /  0.0mm
06:29 51.8 °F /  11 °C 40.8 °F /  4.9 °C 29.9in /  1010.9hPa Oeste 1.8mph /  2.9km/h 2.4mph /  3.9km/h 66% 0in /  0.0mm
06:34 51.4 °F /  10.8 °C 40.8 °F /  4.9 °C 29.9in /  1010.9hPa Oeste 0.4mph /  0.6km/h 2.4mph /  3.9km/h 66.7% 0in /  0.0mm
06:39 51.3 °F /  10.7 °C 40.8 °F /  4.9 °C 29.9in /  1011.0hPa Calm   2.4mph /  3.9km/h 67.3% 0in /  0.0mm
06:44 51.1 °F /  10.6 °C 40.8 °F /  4.9 °C 29.9in /  1011.0hPa Calm   4mph /  6.4km/h 68% 0in /  0.0mm
06:49 50.5 °F /  10.3 °C 40.6 °F /  4.8 °C 29.9in /  1011.0hPa Calm   5mph /  8km/h 68.6% 0in /  0.0mm
06:54 50.4 °F /  10.2 °C 40.6 °F /  4.8 °C 29.9in /  1011.0hPa SE 1.4mph /  2.3km/h 4mph /  6.4km/h 69.5% 0in /  0.0mm
06:59 50 °F /  10 °C 40.8 °F /  4.9 °C 29.9in /  1010.9hPa SE 1.8mph /  2.9km/h 4.6mph /  7.4km/h 70.4% 0in /  0.0mm
07:04 49.8 °F /  9.9 °C 40.8 °F /  4.9 °C 29.9in /  1010.9hPa SSE 2.3mph /  3.7km/h 5mph /  8km/h 71% 0in /  0.0mm
07:09 49.8 °F /  9.9 °C 40.8 °F /  4.9 °C 29.9in /  1010.9hPa Sur 2.4mph /  3.9km/h 5mph /  8km/h 71.1% 0in /  0.0mm
07:14 49.8 °F /  9.9 °C 41.2 °F /  5.1 °C 29.9in /  1010.9hPa Sur 2.4mph /  3.9km/h 4.6mph /  7.4km/h 72% 0in /  0.0mm
07:19 49.8 °F /  9.9 °C 41.2 °F /  5.1 °C 29.9in /  1010.9hPa Sur 2.4mph /  3.9km/h 5mph /  8km/h 71.9% 0in /  0.0mm
07:24 50.2 °F /  10.1 °C 41 °F /  5 °C 29.9in /  1010.9hPa SSO 3mph /  4.8km/h 5.9mph /  9.5km/h 71% 0in /  0.0mm
07:29 50.4 °F /  10.2 °C 41.4 °F /  5.2 °C 29.9in /  1010.9hPa SSO 3.1mph /  5km/h 6.4mph /  10.3km/h 71% 0in /  0.0mm
07:34 50.5 °F /  10.3 °C 41.2 °F /  5.1 °C 29.9in /  1010.9hPa SSE 3.8mph /  6.1km/h 7mph /  11.3km/h 70% 0in /  0.0mm
07:39 50.5 °F /  10.3 °C 41.2 °F /  5.1 °C 29.9in /  1010.9hPa SSE 4mph /  6.5km/h 6.2mph /  10km/h 70% 0in /  0.0mm
07:44 50.5 °F /  10.3 °C 41.2 °F /  5.1 °C 29.9in /  1010.9hPa SSE 4.2mph /  6.8km/h 6mph /  9.7km/h 70% 0in /  0.0mm
07:49 50.5 °F /  10.3 °C 41 °F /  5 °C 29.9in /  1010.9hPa Sur 4.3mph /  6.9km/h 5mph /  8km/h 70% 0in /  0.0mm
07:54 50.5 °F /  10.3 °C 41.2 °F /  5.1 °C 29.9in /  1010.9hPa SSE 3.4mph /  5.4km/h 5mph /  8km/h 70% 0in /  0.0mm
07:59 50.5 °F /  10.3 °C 41.2 °F /  5.1 °C 29.9in /  1010.9hPa SSO 3.1mph /  5km/h 5mph /  8km/h 70% 0in /  0.0mm
08:04 50.7 °F /  10.4 °C 41 °F /  5 °C 29.9in /  1010.9hPa SSO 2mph /  3.2km/h 4.3mph /  6.9km/h 69.4% 0in /  0.0mm
08:09 51.1 °F /  10.6 °C 41.2 °F /  5.1 °C 29.9in /  1010.9hPa SO 1.8mph /  2.9km/h 5mph /  8km/h 68.9% 0in /  0.0mm
08:14 51.3 °F /  10.7 °C 41.2 °F /  5.1 °C 29.9in /  1010.9hPa SO 2.3mph /  3.7km/h 5mph /  8km/h 68% 0in /  0.0mm
08:19 51.6 °F /  10.9 °C 41.2 °F /  5.1 °C 29.9in /  1010.9hPa Sur 2.4mph /  3.9km/h 5.9mph /  9.5km/h 67.6% 0in /  0.0mm
08:24 52 °F /  11.1 °C 41.5 °F /  5.3 °C 29.9in /  1011.0hPa SSE 2.8mph /  4.5km/h 6mph /  9.7km/h 67.6% 0in /  0.0mm
08:29 52.2 °F /  11.2 °C 41.5 °F /  5.3 °C 29.9in /  1011.0hPa SSE 2.9mph /  4.7km/h 5.8mph /  9.3km/h 67% 0in /  0.0mm
08:34 52.2 °F /  11.2 °C 41.5 °F /  5.3 °C 29.9in /  1011.0hPa SSE 3mph /  4.9km/h 6mph /  9.7km/h 67.3% 0in /  0.0mm
08:39 51.8 °F /  11 °C 41.5 °F /  5.3 °C 29.9in /  1011.1hPa SSE 3.1mph /  5km/h 6mph /  9.7km/h 68.1% 0in /  0.0mm
08:44 51.8 °F /  11 °C 41.7 °F /  5.4 °C 29.9in /  1011.1hPa SSE 3.8mph /  6.1km/h 6mph /  9.7km/h 68.4% 0in /  0.0mm
08:49 52.2 °F /  11.2 °C 41.9 °F /  5.5 °C 29.9in /  1011.1hPa Sur 4mph /  6.5km/h 5mph /  8km/h 68% 0in /  0.0mm
08:54 52.5 °F /  11.4 °C 41.9 °F /  5.5 °C 29.9in /  1011.1hPa SSE 3.1mph /  5km/h 5mph /  8km/h 67.3% 0in /  0.0mm
08:59 53.1 °F /  11.7 °C 42.1 °F /  5.6 °C 29.9in /  1011.0hPa SE 2.9mph /  4.7km/h 5.8mph /  9.3km/h 66.3% 0in /  0.0mm
09:04 53.4 °F /  11.9 °C 42.3 °F /  5.7 °C 29.9in /  1011.0hPa SSE 3mph /  4.9km/h 6mph /  9.7km/h 65.7% 0in /  0.0mm
09:09 54 °F /  12.2 °C 41.9 °F /  5.5 °C 29.9in /  1011.0hPa Sur 3.1mph /  5km/h 5mph /  8km/h 63.8% 0in /  0.0mm
09:14 54 °F /  12.2 °C 41.7 °F /  5.4 °C 29.9in /  1011.0hPa SO 2.5mph /  4.1km/h 5mph /  8km/h 63% 0in /  0.0mm
09:19 54.3 °F /  12.4 °C 41.5 °F /  5.3 °C 29.9in /  1011.0hPa OSO 2.4mph /  3.9km/h 4.3mph /  6.9km/h 61.9% 0in /  0.0mm
09:24 54.9 °F /  12.7 °C 41.4 °F /  5.2 °C 29.9in /  1011.0hPa ONO 1.9mph /  3.1km/h 5.2mph /  8.4km/h 60.4% 0in /  0.0mm
09:29 55 °F /  12.8 °C 41.4 °F /  5.2 °C 29.9in /  1011.0hPa ONO 1.8mph /  2.9km/h 5.8mph /  9.3km/h 60% 0in /  0.0mm
09:34 55.2 °F /  12.9 °C 41.5 °F /  5.3 °C 29.9in /  1011.0hPa ONO 2.9mph /  4.6km/h 6mph /  9.7km/h 60% 0in /  0.0mm
09:39 55.4 °F /  13 °C 41.5 °F /  5.3 °C 29.9in /  1011.1hPa OSO 3.1mph /  5km/h 4.7mph /  7.6km/h 59.3% 0in /  0.0mm
09:44 55.8 °F /  13.2 °C 41.4 °F /  5.2 °C 29.9in /  1011.1hPa SO 2.5mph /  4.1km/h 5.2mph /  8.4km/h 58.4% 0in /  0.0mm
09:49 56.3 °F /  13.5 °C 41.7 °F /  5.4 °C 29.9in /  1011.1hPa Sur 2.4mph /  3.9km/h 6.9mph /  11.1km/h 57.9% 0in /  0.0mm
09:54 57 °F /  13.9 °C 41.9 °F /  5.5 °C 29.9in /  1011.1hPa SSO 3.4mph /  5.4km/h 7mph /  11.3km/h 57.2% 0in /  0.0mm
09:59 57.4 °F /  14.1 °C 41.7 °F /  5.4 °C 29.9in /  1011.0hPa SSO 3.6mph /  5.8km/h 7mph /  11.3km/h 56.2% 0in /  0.0mm
10:04 57.6 °F /  14.2 °C 41.7 °F /  5.4 °C 29.9in /  1011.0hPa OSO 3.9mph /  6.3km/h 6.9mph /  11.1km/h 55.2% 0in /  0.0mm
10:09 57.7 °F /  14.3 °C 41.4 °F /  5.2 °C 29.9in /  1011.1hPa OSO 4mph /  6.5km/h 7mph /  11.3km/h 54.4% 0in /  0.0mm
10:14 57.9 °F /  14.4 °C 41.4 °F /  5.2 °C 29.9in /  1011.1hPa Oeste 3.7mph /  5.9km/h 7mph /  11.3km/h 54% 0in /  0.0mm
10:19 58.3 °F /  14.6 °C 41.7 °F /  5.4 °C 29.9in /  1011.1hPa Oeste 3.6mph /  5.8km/h 6mph /  9.7km/h 54% 0in /  0.0mm
10:24 58.6 °F /  14.8 °C 41.5 °F /  5.3 °C 29.9in /  1011.1hPa OSO 2.6mph /  4.2km/h 5.8mph /  9.3km/h 53.1% 0in /  0.0mm
10:29 58.8 °F /  14.9 °C 41.7 °F /  5.4 °C 29.9in /  1011.0hPa Oeste 2.4mph /  3.9km/h 6mph /  9.7km/h 53% 0in /  0.0mm
10:34 59 °F /  15 °C 41.7 °F /  5.4 °C 29.9in /  1011.0hPa Oeste 2.4mph /  3.9km/h 5.2mph /  8.4km/h 52.6% 0in /  0.0mm
10:39 59.4 °F /  15.2 °C 41.5 °F /  5.3 °C 29.9in /  1011.0hPa Sur 2.4mph /  3.9km/h 5.2mph /  8.4km/h 51.4% 0in /  0.0mm
10:44 60.1 °F /  15.6 °C 41.9 °F /  5.5 °C 29.9in /  1010.8hPa SE 2.8mph /  4.5km/h 5mph /  8km/h 51% 0in /  0.0mm
10:49 60.8 °F /  16 °C 41.9 °F /  5.5 °C 29.9in /  1010.8hPa ENE 2.9mph /  4.7km/h 5mph /  8km/h 49.7% 0in /  0.0mm
10:54 61.3 °F /  16.3 °C 41.9 °F /  5.5 °C 29.9in /  1010.8hPa NO 2.2mph /  3.5km/h 4mph /  6.4km/h 48.9% 0in /  0.0mm
10:59 62.1 °F /  16.7 °C 42.3 °F /  5.7 °C 29.8in /  1010.7hPa SSO 2mph /  3.2km/h 4mph /  6.4km/h 48.2% 0in /  0.0mm
11:04 62.4 °F /  16.9 °C 41.9 °F /  5.5 °C 29.8in /  1010.7hPa ONO 1.9mph /  3km/h 4mph /  6.4km/h 47.1% 0in /  0.0mm
11:09 63 °F /  17.2 °C 42.3 °F /  5.7 °C 29.8in /  1010.7hPa SSE 1.8mph /  2.9km/h 4.6mph /  7.4km/h 46.9% 0in /  0.0mm
11:14 63.5 °F /  17.5 °C 42.1 °F /  5.6 °C 29.8in /  1010.7hPa North 1.5mph /  2.4km/h 5mph /  8km/h 45.6% 0in /  0.0mm
11:19 63.7 °F /  17.6 °C 42.3 °F /  5.7 °C 29.8in /  1010.7hPa OSO 1.4mph /  2.2km/h 5mph /  8km/h 45.7% 0in /  0.0mm
11:24 63.7 °F /  17.6 °C 42.4 °F /  5.8 °C 29.8in /  1010.7hPa SO 2.2mph /  3.6km/h 5.2mph /  8.4km/h 45.8% 0in /  0.0mm
11:29 63.9 °F /  17.7 °C 42.4 °F /  5.8 °C 29.8in /  1010.5hPa NO 2.4mph /  3.9km/h 5mph /  8km/h 45.5% 0in /  0.0mm
11:34 64 °F /  17.8 °C 42.8 °F /  6 °C 29.8in /  1010.5hPa ONO 1.9mph /  3.1km/h 5mph /  8km/h 45.8% 0in /  0.0mm
11:39 64.8 °F /  18.2 °C 43 °F /  6.1 °C 29.8in /  1010.5hPa Sur 1.8mph /  2.9km/h 5.9mph /  9.5km/h 45.1% 0in /  0.0mm
11:44 65.1 °F /  18.4 °C 43 °F /  6.1 °C 29.8in /  1010.1hPa SSE 2.7mph /  4.3km/h 6mph /  9.7km/h 44.4% 0in /  0.0mm
11:49 65.7 °F /  18.7 °C 43.3 °F /  6.3 °C 29.8in /  1010.1hPa SSO 2.9mph /  4.7km/h 5.2mph /  8.4km/h 44.4% 0in /  0.0mm
11:54 66 °F /  18.9 °C 43.5 °F /  6.4 °C 29.8in /  1010.1hPa SSE 2.5mph /  4km/h 6.9mph /  11.1km/h 44% 0in /  0.0mm
11:59 66.4 °F /  19.1 °C 43.7 °F /  6.5 °C 29.8in /  1009.9hPa SO 2.4mph /  3.9km/h 7mph /  11.3km/h 44% 0in /  0.0mm
12:04 66.6 °F /  19.2 °C 43.9 °F /  6.6 °C 29.8in /  1009.9hPa NNE 2.8mph /  4.5km/h 5.8mph /  9.3km/h 44% 0in /  0.0mm
12:09 66.6 °F /  19.2 °C 44.2 °F /  6.8 °C 29.8in /  1009.9hPa OSO 2.9mph /  4.7km/h 8.1mph /  13km/h 44.4% 0in /  0.0mm
12:14 66.4 °F /  19.1 °C 44.4 °F /  6.9 °C 29.8in /  1009.7hPa SO 3.8mph /  6.1km/h 8mph /  12.9km/h 45% 0in /  0.0mm
12:19 66.4 °F /  19.1 °C 44.4 °F /  6.9 °C 29.8in /  1009.7hPa OSO 4mph /  6.5km/h 6.2mph /  10km/h 45% 0in /  0.0mm
12:24 66.6 °F /  19.2 °C 44.8 °F /  7.1 °C 29.8in /  1009.7hPa Oeste 3.7mph /  5.9km/h 6mph /  9.7km/h 45.5% 0in /  0.0mm
12:29 66.7 °F /  19.3 °C 45.3 °F /  7.4 °C 29.8in /  1009.4hPa Sur 3.6mph /  5.8km/h 6.9mph /  11.1km/h 45.9% 0in /  0.0mm
12:34 66.9 °F /  19.4 °C 45.1 °F /  7.3 °C 29.8in /  1009.4hPa SSO 3.9mph /  6.3km/h 7.4mph /  11.9km/h 45.4% 0in /  0.0mm
12:39 67.1 °F /  19.5 °C 45.7 °F /  7.6 °C 29.8in /  1009.4hPa OSO 4mph /  6.5km/h 7.4mph /  11.9km/h 46% 0in /  0.0mm
12:44 67.1 °F /  19.5 °C 45.5 °F /  7.5 °C 29.8in /  1009.3hPa OSO 4.2mph /  6.8km/h 7.6mph /  12.2km/h 46% 0in /  0.0mm
12:49 67.1 °F /  19.5 °C 45.7 °F /  7.6 °C 29.8in /  1009.3hPa OSO 4.3mph /  6.9km/h 8.1mph /  13km/h 46% 0in /  0.0mm
12:54 67.5 °F /  19.7 °C 45.9 °F /  7.7 °C 29.8in /  1009.3hPa OSO 4mph /  6.5km/h 9.2mph /  14.8km/h 46% 0in /  0.0mm
12:59 67.5 °F /  19.7 °C 46 °F /  7.8 °C 29.8in /  1009.0hPa OSO 4mph /  6.5km/h 9.2mph /  14.8km/h 46.1% 0in /  0.0mm
13:04 67.5 °F /  19.7 °C 46 °F /  7.8 °C 29.8in /  1009.0hPa OSO 5.2mph /  8.3km/h 9mph /  14.5km/h 46.2% 0in /  0.0mm
13:09 67.6 °F /  19.8 °C 46.4 °F /  8 °C 29.8in /  1009.0hPa SO 5.4mph /  8.7km/h 8.1mph /  13km/h 46.4% 0in /  0.0mm
13:14 68 °F /  20 °C 46.6 °F /  8.1 °C 29.8in /  1008.7hPa SO 4.3mph /  6.9km/h 9.7mph /  15.6km/h 46.2% 0in /  0.0mm
13:19 68.4 °F /  20.2 °C 46.8 °F /  8.2 °C 29.8in /  1008.7hPa OSO 4mph /  6.5km/h 10mph /  16.1km/h 46% 0in /  0.0mm
13:24 68.5 °F /  20.3 °C 46.9 °F /  8.3 °C 29.8in /  1008.7hPa OSO 5mph /  8km/h 9mph /  14.5km/h 45.9% 0in /  0.0mm
13:29 69.1 °F /  20.6 °C 46.8 °F /  8.2 °C 29.8in /  1008.5hPa OSO 5.2mph /  8.4km/h 9.2mph /  14.8km/h 45% 0in /  0.0mm
13:34 69.3 °F /  20.7 °C 46.9 °F /  8.3 °C 29.8in /  1008.5hPa OSO 4.2mph /  6.8km/h 9.2mph /  14.8km/h 45% 0in /  0.0mm
13:39 69.1 °F /  20.6 °C 46.8 °F /  8.2 °C 29.8in /  1008.5hPa OSO 4mph /  6.5km/h 9.2mph /  14.8km/h 45% 0in /  0.0mm
13:44 69.3 °F /  20.7 °C 46.9 °F /  8.3 °C 29.8in /  1008.2hPa SO 5.2mph /  8.3km/h 9mph /  14.5km/h 45% 0in /  0.0mm
13:49 69.4 °F /  20.8 °C 47.3 °F /  8.5 °C 29.8in /  1008.2hPa SO 5.4mph /  8.7km/h 7mph /  11.3km/h 45.1% 0in /  0.0mm
13:54 69.6 °F /  20.9 °C 47.3 °F /  8.5 °C 29.8in /  1008.2hPa Oeste 3.9mph /  6.3km/h 7mph /  11.3km/h 44.9% 0in /  0.0mm
13:59 70 °F /  21.1 °C 47.3 °F /  8.5 °C 29.8in /  1007.8hPa SO 3.6mph /  5.8km/h 6mph /  9.7km/h 44.4% 0in /  0.0mm
14:04 70 °F /  21.1 °C 47.7 °F /  8.7 °C 29.8in /  1007.8hPa OSO 2.5mph /  4.1km/h 6mph /  9.7km/h 45% 0in /  0.0mm
14:09 70.2 °F /  21.2 °C 47.8 °F /  8.8 °C 29.8in /  1007.8hPa OSO 2.4mph /  3.9km/h 6mph /  9.7km/h 45% 0in /  0.0mm
14:14 70.2 °F /  21.2 °C 47.7 °F /  8.7 °C 29.8in /  1007.8hPa ONO 2.8mph /  4.5km/h 6mph /  9.7km/h 44.8% 0in /  0.0mm
14:19 70.3 °F /  21.3 °C 47.7 °F /  8.7 °C 29.8in /  1007.8hPa ONO 2.9mph /  4.7km/h 6mph /  9.7km/h 44.3% 0in /  0.0mm
14:24 70.5 °F /  21.4 °C 47.5 °F /  8.6 °C 29.8in /  1007.8hPa ONO 2.5mph /  4km/h 6mph /  9.7km/h 44% 0in /  0.0mm
14:29 70.5 °F /  21.4 °C 47.5 °F /  8.6 °C 29.8in /  1007.6hPa NO 2.4mph /  3.9km/h 6mph /  9.7km/h 44% 0in /  0.0mm
14:34 70.5 °F /  21.4 °C 47.7 °F /  8.7 °C 29.8in /  1007.6hPa NO 3mph /  4.8km/h 6.2mph /  10km/h 44.3% 0in /  0.0mm
14:39 70.3 °F /  21.3 °C 47.8 °F /  8.8 °C 29.8in /  1007.6hPa NO 3.1mph /  5km/h 8.1mph /  13km/h 44.6% 0in /  0.0mm
14:44 70.3 °F /  21.3 °C 47.3 °F /  8.5 °C 29.8in /  1007.5hPa NO 3.8mph /  6.1km/h 10.4mph /  16.7km/h 43.9% 0in /  0.0mm
14:49 70 °F /  21.1 °C 46.9 °F /  8.3 °C 29.8in /  1007.5hPa NO 4mph /  6.5km/h 10mph /  16.1km/h 43.7% 0in /  0.0mm
14:54 69.6 °F /  20.9 °C 46.9 °F /  8.3 °C 29.8in /  1007.7hPa ONO 6mph /  9.6km/h 10.4mph /  16.7km/h 44.4% 0in /  0.0mm
14:59 69.4 °F /  20.8 °C 47.7 °F /  8.7 °C 29.8in /  1007.7hPa Oeste 6.4mph /  10.3km/h 10.7mph /  17.2km/h 46% 0in /  0.0mm
15:04 68.7 °F /  20.4 °C 49.5 °F /  9.7 °C 29.8in /  1007.7hPa ONO 6.8mph /  11km/h 13.8mph /  22.2km/h 50.3% 0in /  0.0mm
15:09 67.8 °F /  19.9 °C 51.1 °F /  10.6 °C 29.8in /  1008.2hPa ONO 6.9mph /  11.1km/h 14mph /  22.5km/h 54.9% 0in /  0.0mm
15:14 67.3 °F /  19.6 °C 51.1 °F /  10.6 °C 29.8in /  1008.2hPa Oeste 5.1mph /  8.2km/h 6mph /  9.7km/h 56.1% 0in /  0.0mm
15:19 66.9 °F /  19.4 °C 51.3 °F /  10.7 °C 29.8in /  1008.2hPa SO 4.7mph /  7.6km/h 6mph /  9.7km/h 57.3% 0in /  0.0mm
15:24 66.7 °F /  19.3 °C 51.4 °F /  10.8 °C 29.8in /  1008.2hPa SO 3.4mph /  5.5km/h 5.2mph /  8.4km/h 57.7% 0in /  0.0mm
15:29 66.9 °F /  19.4 °C 51.4 °F /  10.8 °C 29.8in /  1008.2hPa SSO 3.1mph /  5km/h 5.9mph /  9.5km/h 57.8% 0in /  0.0mm
15:34 67.1 °F /  19.5 °C 51.3 °F /  10.7 °C 29.8in /  1008.2hPa SSE 3.1mph /  5km/h 6.9mph /  11.1km/h 56.8% 0in /  0.0mm
15:39 67.3 °F /  19.6 °C 51.6 °F /  10.9 °C 29.8in /  1008.2hPa Sur 3.1mph /  5km/h 9.2mph /  14.8km/h 57.1% 0in /  0.0mm
15:44 67.3 °F /  19.6 °C 51.6 °F /  10.9 °C 29.8in /  1007.7hPa Sur 4.3mph /  7km/h 9mph /  14.5km/h 57.3% 0in /  0.0mm
15:49 67.3 °F /  19.6 °C 51.4 °F /  10.8 °C 29.8in /  1007.7hPa SSE 4.7mph /  7.6km/h 8.7mph /  14km/h 56.8% 0in /  0.0mm
15:54 67.3 °F /  19.6 °C 51.1 °F /  10.6 °C 29.8in /  1007.7hPa SSE 5.1mph /  8.2km/h 9.2mph /  14.8km/h 56.2% 0in /  0.0mm
15:59 67.3 °F /  19.6 °C 51.6 °F /  10.9 °C 29.8in /  1007.5hPa Sur 5.2mph /  8.4km/h 9mph /  14.5km/h 57.1% 0in /  0.0mm
16:04 67.6 °F /  19.8 °C 51.6 °F /  10.9 °C 29.8in /  1007.5hPa SSE 5.2mph /  8.4km/h 9.7mph /  15.6km/h 56.5% 0in /  0.0mm
16:09 67.6 °F /  19.8 °C 52.5 °F /  11.4 °C 29.8in /  1007.5hPa SE 5.2mph /  8.4km/h 10.4mph /  16.7km/h 58.4% 0in /  0.0mm
16:14 67.6 °F /  19.8 °C 52.9 °F /  11.6 °C 29.7in /  1007.2hPa SSE 5.3mph /  8.6km/h 10mph /  16.1km/h 59.2% 0in /  0.0mm
16:19 67.6 °F /  19.8 °C 52.9 °F /  11.6 °C 29.7in /  1007.2hPa NNE 5.4mph /  8.7km/h 7mph /  11.3km/h 58.9% 0in /  0.0mm
16:24 68.2 °F /  20.1 °C 52 °F /  11.1 °C 29.8in /  1007.4hPa Sur 2.7mph /  4.3km/h 5mph /  8km/h 56.5% 0in /  0.0mm
16:29 68.2 °F /  20.1 °C 52 °F /  11.1 °C 29.8in /  1007.4hPa SSE 2mph /  3.2km/h 5.9mph /  9.5km/h 56.2% 0in /  0.0mm
16:34 67.8 °F /  19.9 °C 52.2 °F /  11.2 °C 29.8in /  1007.4hPa SSE 2.3mph /  3.7km/h 6.9mph /  11.1km/h 57% 0in /  0.0mm
16:39 67.6 °F /  19.8 °C 52 °F /  11.1 °C 29.8in /  1007.4hPa SSE 2.4mph /  3.9km/h 8.5mph /  13.7km/h 57.1% 0in /  0.0mm
16:44 67.6 °F /  19.8 °C 52.2 °F /  11.2 °C 29.7in /  1007.3hPa SSE 4.7mph /  7.5km/h 9mph /  14.5km/h 57.6% 0in /  0.0mm
16:49 67.8 °F /  19.9 °C 52.2 °F /  11.2 °C 29.7in /  1007.3hPa SSE 5.2mph /  8.4km/h 6mph /  9.7km/h 57.3% 0in /  0.0mm
16:54 68 °F /  20 °C 52.2 °F /  11.2 °C 29.7in /  1007.3hPa SE 3.4mph /  5.4km/h 7.6mph /  12.2km/h 56.9% 0in /  0.0mm
16:59 68 °F /  20 °C 51.8 °F /  11 °C 29.7in /  1007.3hPa Sur 2.9mph /  4.7km/h 8.1mph /  13km/h 56% 0in /  0.0mm
17:04 67.8 °F /  19.9 °C 51.4 °F /  10.8 °C 29.7in /  1007.3hPa Sur 3.8mph /  6.1km/h 8mph /  12.9km/h 56% 0in /  0.0mm
17:09 67.8 °F /  19.9 °C 51.4 °F /  10.8 °C 29.7in /  1007.3hPa Sur 4mph /  6.5km/h 7mph /  11.3km/h 55.7% 0in /  0.0mm
17:14 67.8 °F /  19.9 °C 51.6 °F /  10.9 °C 29.7in /  1007.3hPa Sur 4.6mph /  7.4km/h 7.4mph /  11.9km/h 56.3% 0in /  0.0mm
17:19 67.8 °F /  19.9 °C 52 °F /  11.1 °C 29.7in /  1007.3hPa Sur 4.7mph /  7.6km/h 8.1mph /  13km/h 57% 0in /  0.0mm
17:24 67.8 °F /  19.9 °C 52 °F /  11.1 °C 29.8in /  1007.5hPa Sur 5.1mph /  8.2km/h 8mph /  12.9km/h 57.2% 0in /  0.0mm
17:29 67.6 °F /  19.8 °C 52 °F /  11.1 °C 29.8in /  1007.5hPa Sur 5.2mph /  8.4km/h 7.4mph /  11.9km/h 57% 0in /  0.0mm
17:34 67.8 °F /  19.9 °C 52 °F /  11.1 °C 29.8in /  1007.5hPa SSO 4.5mph /  7.2km/h 7mph /  11.3km/h 57% 0in /  0.0mm
17:39 67.8 °F /  19.9 °C 52 °F /  11.1 °C 29.8in /  1007.5hPa OSO 4.3mph /  6.9km/h 7mph /  11.3km/h 57% 0in /  0.0mm
17:44 67.8 °F /  19.9 °C 52.2 °F /  11.2 °C 29.8in /  1007.4hPa Oeste 3.2mph /  5.1km/h 5mph /  8km/h 57.4% 0in /  0.0mm
17:49 67.8 °F /  19.9 °C 52 °F /  11.1 °C 29.8in /  1007.4hPa SO 2.9mph /  4.7km/h 4mph /  6.4km/h 57.1% 0in /  0.0mm
17:54 67.6 °F /  19.8 °C 52 °F /  11.1 °C 29.8in /  1007.4hPa Sur 2mph /  3.2km/h 5.9mph /  9.5km/h 57% 0in /  0.0mm
17:59 67.5 °F /  19.7 °C 51.6 °F /  10.9 °C 29.7in /  1007.3hPa Sur 1.8mph /  2.9km/h 6.9mph /  11.1km/h 57% 0in /  0.0mm
18:04 67.1 °F /  19.5 °C 51.8 °F /  11 °C 29.7in /  1007.3hPa Sur 3.7mph /  5.9km/h 7mph /  11.3km/h 58% 0in /  0.0mm
18:09 66.7 °F /  19.3 °C 51.8 °F /  11 °C 29.8in /  1007.4hPa Sur 4mph /  6.5km/h 7.4mph /  11.9km/h 58.5% 0in /  0.0mm
18:14 66.6 °F /  19.2 °C 51.8 °F /  11 °C 29.8in /  1007.4hPa Sur 4.2mph /  6.8km/h 7mph /  11.3km/h 59.2% 0in /  0.0mm
18:19 66.4 °F /  19.1 °C 52 °F /  11.1 °C 29.8in /  1007.4hPa SSE 4.3mph /  6.9km/h 6mph /  9.7km/h 60% 0in /  0.0mm
18:24 66.2 °F /  19 °C 52 °F /  11.1 °C 29.8in /  1007.4hPa Sur 3.4mph /  5.4km/h 5mph /  8km/h 60.3% 0in /  0.0mm
18:29 66 °F /  18.9 °C 52.2 °F /  11.2 °C 29.8in /  1007.4hPa Sur 3.1mph /  5km/h 4.6mph /  7.4km/h 61% 0in /  0.0mm
18:34 66 °F /  18.9 °C 52.2 °F /  11.2 °C 29.8in /  1007.4hPa OSO 2.2mph /  3.5km/h 5mph /  8km/h 61% 0in /  0.0mm
18:39 65.8 °F /  18.8 °C 52 °F /  11.1 °C 29.8in /  1007.8hPa OSO 2mph /  3.2km/h 3mph /  4.8km/h 61% 0in /  0.0mm
18:44 65.7 °F /  18.7 °C 51.8 °F /  11 °C 29.8in /  1007.8hPa OSO 1.5mph /  2.4km/h 2mph /  3.2km/h 61.1% 0in /  0.0mm
18:49 65.5 °F /  18.6 °C 52 °F /  11.1 °C 29.8in /  1007.8hPa OSO 1.4mph /  2.2km/h   62% 0in /  0.0mm
18:54 65.1 °F /  18.4 °C 52.2 °F /  11.2 °C 29.8in /  1007.9hPa OSO 0.2mph /  0.4km/h   62.9% 0in /  0.0mm
18:59 64.9 °F /  18.3 °C 52 °F /  11.1 °C 29.8in /  1007.9hPa Calm   2.4mph /  3.9km/h 63% 0in /  0.0mm
19:04 64.8 °F /  18.2 °C 52.3 °F /  11.3 °C 29.8in /  1007.9hPa Calm   4mph /  6.4km/h 63.9% 0in /  0.0mm
19:09 64.6 °F /  18.1 °C 52.2 °F /  11.2 °C 29.8in /  1008.0hPa Calm   5mph /  8km/h 64% 0in /  0.0mm
19:14 64.6 °F /  18.1 °C 52.2 °F /  11.2 °C 29.8in /  1008.0hPa SE 1.9mph /  3.1km/h 7.4mph /  11.9km/h 64% 0in /  0.0mm
19:19 64.4 °F /  18 °C 51.6 °F /  10.9 °C 29.8in /  1008.0hPa SSE 2.4mph /  3.9km/h 8.1mph /  13km/h 63.3% 0in /  0.0mm
19:24 64.4 °F /  18 °C 51.1 °F /  10.6 °C 29.8in /  1008.1hPa SSE 3.9mph /  6.3km/h 9.7mph /  15.6km/h 62.1% 0in /  0.0mm
19:29 64.2 °F /  17.9 °C 50.7 °F /  10.4 °C 29.8in /  1008.1hPa SSE 4.3mph /  6.9km/h 10.7mph /  17.2km/h 61.5% 0in /  0.0mm
19:34 64.2 °F /  17.9 °C 48.4 °F /  9.1 °C 29.8in /  1008.1hPa SSO 6mph /  9.6km/h 16.1mph /  25.9km/h 56.3% 0in /  0.0mm
19:39 64.9 °F /  18.3 °C 46.8 °F /  8.2 °C 29.8in /  1008.1hPa SSO 6.4mph /  10.3km/h 16mph /  25.7km/h 51.8% 0in /  0.0mm
19:44 65.3 °F /  18.5 °C 46.9 °F /  8.3 °C 29.8in /  1008.1hPa SO 6.3mph /  10.1km/h 10mph /  16.1km/h 51.5% 0in /  0.0mm
19:49 65.1 °F /  18.4 °C 46.6 °F /  8.1 °C 29.8in /  1008.1hPa SSO 6.2mph /  10km/h 9.7mph /  15.6km/h 51.1% 0in /  0.0mm
19:54 65.1 °F /  18.4 °C 46.8 °F /  8.2 °C 29.8in /  1008.2hPa SO 5mph /  8km/h 11.8mph /  19km/h 51.6% 0in /  0.0mm
19:59 64.9 °F /  18.3 °C 46.8 °F /  8.2 °C 29.8in /  1008.2hPa Oeste 4.7mph /  7.6km/h 12mph /  19.3km/h 52% 0in /  0.0mm
20:04 64.6 °F /  18.1 °C 46.6 °F /  8.1 °C 29.8in /  1008.2hPa ESE 3.2mph /  5.1km/h 5.2mph /  8.4km/h 51.9% 0in /  0.0mm
20:09 64.2 °F /  17.9 °C 46 °F /  7.8 °C 29.8in /  1008.3hPa SO 2.9mph /  4.7km/h 5mph /  8km/h 51.7% 0in /  0.0mm
20:14 64 °F /  17.8 °C 45.1 °F /  7.3 °C 29.8in /  1008.3hPa SO 2.9mph /  4.7km/h 6.2mph /  10km/h 50.5% 0in /  0.0mm
20:19 63.9 °F /  17.7 °C 45 °F /  7.2 °C 29.8in /  1008.3hPa SO 2.9mph /  4.7km/h 6mph /  9.7km/h 50% 0in /  0.0mm
20:24 63.7 °F /  17.6 °C 44.6 °F /  7 °C 29.8in /  1008.6hPa SO 3.5mph /  5.6km/h 8.5mph /  13.7km/h 49.7% 0in /  0.0mm
20:29 63.7 °F /  17.6 °C 43.9 °F /  6.6 °C 29.8in /  1008.6hPa OSO 3.6mph /  5.8km/h 11.5mph /  18.5km/h 48.5% 0in /  0.0mm
20:34 63.7 °F /  17.6 °C 43.5 °F /  6.4 °C 29.8in /  1008.6hPa OSO 5.5mph /  8.8km/h 12mph /  19.3km/h 48% 0in /  0.0mm
20:39 63.5 °F /  17.5 °C 43.3 °F /  6.3 °C 29.8in /  1008.7hPa OSO 5.9mph /  9.5km/h 10mph /  16.1km/h 48% 0in /  0.0mm
20:44 63.5 °F /  17.5 °C 43 °F /  6.1 °C 29.8in /  1008.7hPa Oeste 5.3mph /  8.6km/h 10.7mph /  17.2km/h 47.4% 0in /  0.0mm
20:49 63.3 °F /  17.4 °C 42.8 °F /  6 °C 29.8in /  1008.7hPa OSO 5.2mph /  8.4km/h 11mph /  17.7km/h 47.2% 0in /  0.0mm
20:54 63.1 °F /  17.3 °C 42.6 °F /  5.9 °C 29.8in /  1008.7hPa SO 5.2mph /  8.4km/h 11.5mph /  18.5km/h 47.1% 0in /  0.0mm
20:59 63 °F /  17.2 °C 41.9 °F /  5.5 °C 29.8in /  1008.7hPa Oeste 5.2mph /  8.4km/h 12mph /  19.3km/h 46.2% 0in /  0.0mm
21:04 63 °F /  17.2 °C 42.3 °F /  5.7 °C 29.8in /  1008.7hPa OSO 4.2mph /  6.7km/h 7.4mph /  11.9km/h 47% 0in /  0.0mm
21:09 62.6 °F /  17 °C 42.1 °F /  5.6 °C 29.8in /  1008.9hPa SO 4mph /  6.5km/h 9.2mph /  14.8km/h 47% 0in /  0.0mm
21:14 62.4 °F /  16.9 °C 42.3 °F /  5.7 °C 29.8in /  1008.9hPa OSO 4.6mph /  7.4km/h 10.4mph /  16.7km/h 47.7% 0in /  0.0mm
21:19 62.2 °F /  16.8 °C 41.2 °F /  5.1 °C 29.8in /  1008.9hPa Oeste 4.7mph /  7.6km/h 13.7mph /  22km/h 46.2% 0in /  0.0mm
21:24 62.4 °F /  16.9 °C 40.3 °F /  4.6 °C 29.8in /  1009.2hPa Oeste 5.9mph /  9.5km/h 14mph /  22.5km/h 44.3% 0in /  0.0mm
21:29 62.4 °F /  16.9 °C 39.2 °F /  4 °C 29.8in /  1009.2hPa Oeste 6.2mph /  10km/h 14mph /  22.5km/h 42.3% 0in /  0.0mm
21:34 62.8 °F /  17.1 °C 39.2 °F /  4 °C 29.8in /  1009.2hPa Oeste 6mph /  9.6km/h 10.4mph /  16.7km/h 41.7% 0in /  0.0mm
21:39 62.8 °F /  17.1 °C 38.7 °F /  3.7 °C 29.8in /  1009.4hPa Oeste 5.9mph /  9.5km/h 7.4mph /  11.9km/h 41% 0in /  0.0mm
21:44 62.6 °F /  17 °C 38.7 °F /  3.7 °C 29.8in /  1009.4hPa SO 4.3mph /  7km/h 7.4mph /  11.9km/h 41% 0in /  0.0mm
21:49 62.6 °F /  17 °C 38.7 °F /  3.7 °C 29.8in /  1009.4hPa SO 4mph /  6.4km/h 5.2mph /  8.4km/h 41% 0in /  0.0mm
21:54 62.6 °F /  17 °C 38.7 °F /  3.7 °C 29.8in /  1009.4hPa SE 3.3mph /  5.3km/h 8.1mph /  13km/h 41% 0in /  0.0mm
21:59 62.4 °F /  16.9 °C 38.3 °F /  3.5 °C 29.8in /  1009.2hPa SO 3.1mph /  5km/h 8mph /  12.9km/h 40.9% 0in /  0.0mm
22:04 62.4 °F /  16.9 °C 37.6 °F /  3.1 °C 29.8in /  1009.2hPa Oeste 3.5mph /  5.7km/h 17.3mph /  27.8km/h 39.6% 0in /  0.0mm
22:09 62.8 °F /  17.1 °C 37.4 °F /  3 °C 29.8in /  1009.3hPa Oeste 3.6mph /  5.8km/h 17.3mph /  27.8km/h 39% 0in /  0.0mm
22:14 63 °F /  17.2 °C 37 °F /  2.8 °C 29.8in /  1009.3hPa Oeste 7.7mph /  12.4km/h 22.3mph /  35.9km/h 38.2% 0in /  0.0mm
22:19 63.3 °F /  17.4 °C 36.7 °F /  2.6 °C 29.8in /  1009.3hPa Oeste 8.7mph /  14km/h 23mph /  37km/h 37.1% 0.01in /  0.3mm
22:24 63.1 °F /  17.3 °C 37 °F /  2.8 °C 29.8in /  1009.3hPa Oeste 11.7mph /  18.8km/h 24.2mph /  38.9km/h 37.8% 0.01in /  0.3mm
22:29 63 °F /  17.2 °C 37 °F /  2.8 °C 29.8in /  1009.3hPa Oeste 12.5mph /  20.1km/h 24mph /  38.6km/h 38% 0.01in /  0.3mm
22:34 62.8 °F /  17.1 °C 36.7 °F /  2.6 °C 29.8in /  1009.3hPa Oeste 11.6mph /  18.7km/h 17mph /  27.4km/h 38% 0.01in /  0.3mm
22:39 62.4 °F /  16.9 °C 37 °F /  2.8 °C 29.8in /  1009.5hPa Oeste 11.4mph /  18.4km/h 16.1mph /  25.9km/h 38.7% 0.01in /  0.3mm
22:44 62.2 °F /  16.8 °C 37 °F /  2.8 °C 29.8in /  1009.5hPa Oeste 9.1mph /  14.6km/h 16mph /  25.7km/h 39% 0.01in /  0.3mm
22:49 61.9 °F /  16.6 °C 37.2 °F /  2.9 °C 29.8in /  1009.5hPa Oeste 8.5mph /  13.7km/h 12mph /  19.3km/h 39.9% 0.01in /  0.3mm
22:54 61.5 °F /  16.4 °C 37 °F /  2.8 °C 29.8in /  1009.9hPa Oeste 6.6mph /  10.7km/h 12mph /  19.3km/h 40% 0.01in /  0.3mm
22:59 61.3 °F /  16.3 °C 36.9 °F /  2.7 °C 29.8in /  1009.9hPa Oeste 6.2mph /  10km/h 9.2mph /  14.8km/h 40% 0.01in /  0.3mm
23:04 61.2 °F /  16.2 °C 36.9 °F /  2.7 °C 29.8in /  1009.9hPa ONO 5.3mph /  8.6km/h 9mph /  14.5km/h 40.4% 0.01in /  0.3mm
23:09 61 °F /  16.1 °C 37 °F /  2.8 °C 29.8in /  1010.1hPa ONO 5.2mph /  8.4km/h 9mph /  14.5km/h 41% 0.01in /  0.3mm
23:14 60.6 °F /  15.9 °C 37.2 °F /  2.9 °C 29.8in /  1010.1hPa ONO 3.9mph /  6.3km/h 7mph /  11.3km/h 41.7% 0.01in /  0.3mm
23:19 60.3 °F /  15.7 °C 37.4 °F /  3 °C 29.8in /  1010.1hPa NO 3.6mph /  5.8km/h 5.4mph /  8.7km/h 42.5% 0in /  0.0mm
23:24 59.7 °F /  15.4 °C 37.4 °F /  3 °C 29.8in /  1010.3hPa NO 2.6mph /  4.2km/h 6.4mph /  10.3km/h 43.3% 0in /  0.0mm
23:29 59.4 °F /  15.2 °C 37.4 °F /  3 °C 29.8in /  1010.3hPa ONO 2.4mph /  3.9km/h 7mph /  11.3km/h 44% 0in /  0.0mm
23:34 59.2 °F /  15.1 °C 37.2 °F /  2.9 °C 29.8in /  1010.3hPa Oeste 3.9mph /  6.3km/h 6.9mph /  11.1km/h 44.2% 0in /  0.0mm
23:39 58.8 °F /  14.9 °C 37.6 °F /  3.1 °C 29.8in /  1010.4hPa OSO 4.3mph /  6.9km/h 8.1mph /  13km/h 45% 0in /  0.0mm
23:44 58.8 °F /  14.9 °C 37 °F /  2.8 °C 29.8in /  1010.4hPa OSO 4mph /  6.5km/h 8.1mph /  13km/h 44% 0in /  0.0mm
23:49 59 °F /  15 °C 37.2 °F /  2.9 °C 29.8in /  1010.4hPa SO 4mph /  6.5km/h 9.7mph /  15.6km/h 44% 0in /  0.0mm
23:54 59.2 °F /  15.1 °C 37.4 °F /  3 °C 29.8in /  1010.4hPa OSO 5mph /  8km/h 10.4mph /  16.7km/h 44% 0in /  0.0mm
23:59 59.4 °F /  15.2 °C 37 °F /  2.8 °C 29.8in /  1010.4hPa OSO 5.2mph /  8.4km/h 10.7mph /  17.2km/h 43.3% 0in /  0.0mm
Murcia-Puente Tocinos, España
Compliments of Weather Underground - 3 mb

La estación de MeteoMurcia.com, publica sus datos en los siguientes proyectos:

Weather Underground PWS IMURCIAP2 Meteoclimatic www.awekas.at

W3Counter
Web Analytics